sensor_id;sensor_type;location;lat;lon;timestamp;temperature;humidity
21121;DHT22;12519;43.318;21.898;2022-08-04T00:00:17;25.0;75.0
21121;DHT22;12519;43.318;21.898;2022-08-04T00:05:06;24.9;74.0
21121;DHT22;12519;43.318;21.898;2022-08-04T00:10:18;24.9;74.0
21121;DHT22;12519;43.318;21.898;2022-08-04T00:15:13;24.7;74.0
21121;DHT22;12519;43.318;21.898;2022-08-04T00:20:03;24.7;74.0
21121;DHT22;12519;43.318;21.898;2022-08-04T00:24:54;24.5;74.0
21121;DHT22;12519;43.318;21.898;2022-08-04T00:29:39;24.5;74.0
21121;DHT22;12519;43.318;21.898;2022-08-04T00:34:18;24.4;74.0
21121;DHT22;12519;43.318;21.898;2022-08-04T00:38:59;24.4;74.0
21121;DHT22;12519;43.318;21.898;2022-08-04T00:44:19;24.3;74.0
21121;DHT22;12519;43.318;21.898;2022-08-04T00:50:11;24.3;74.0
21121;DHT22;12519;43.318;21.898;2022-08-04T00:57:20;24.2;74.0
21121;DHT22;12519;43.318;21.898;2022-08-04T01:03:31;24.1;74.0
21121;DHT22;12519;43.318;21.898;2022-08-04T01:09:18;24.1;74.0
21121;DHT22;12519;43.318;21.898;2022-08-04T01:15:05;24.1;74.0
21121;DHT22;12519;43.318;21.898;2022-08-04T01:20:06;24.1;74.0
21121;DHT22;12519;43.318;21.898;2022-08-04T01:26:07;24.1;75.0
21121;DHT22;12519;43.318;21.898;2022-08-04T01:32:03;24.1;75.0
21121;DHT22;12519;43.318;21.898;2022-08-04T01:37:11;24.1;75.0
21121;DHT22;12519;43.318;21.898;2022-08-04T01:42:06;24.1;75.0
21121;DHT22;12519;43.318;21.898;2022-08-04T01:46:51;24.1;75.0
21121;DHT22;12519;43.318;21.898;2022-08-04T01:51:39;24.0;74.0
21121;DHT22;12519;43.318;21.898;2022-08-04T01:56:18;24.0;74.0
21121;DHT22;12519;43.318;21.898;2022-08-04T02:01:09;24.0;74.0
21121;DHT22;12519;43.318;21.898;2022-08-04T02:06:14;23.9;74.0
21121;DHT22;12519;43.318;21.898;2022-08-04T02:12:02;23.6;75.0
21121;DHT22;12519;43.318;21.898;2022-08-04T02:17:39;23.6;75.0
21121;DHT22;12519;43.318;21.898;2022-08-04T02:23:04;23.3;76.0
21121;DHT22;12519;43.318;21.898;2022-08-04T02:28:21;23.3;76.0
21121;DHT22;12519;43.318;21.898;2022-08-04T02:33:30;23.4;76.0
21121;DHT22;12519;43.318;21.898;2022-08-04T02:38:54;23.4;76.0
21121;DHT22;12519;43.318;21.898;2022-08-04T02:43:48;23.4;76.0
21121;DHT22;12519;43.318;21.898;2022-08-04T02:48:37;23.4;76.0
21121;DHT22;12519;43.318;21.898;2022-08-04T02:53:26;23.4;76.0
21121;DHT22;12519;43.318;21.898;2022-08-04T02:58:11;23.4;76.0
21121;DHT22;12519;43.318;21.898;2022-08-04T03:03:30;23.5;75.0
21121;DHT22;12519;43.318;21.898;2022-08-04T03:09:25;23.5;75.0
21121;DHT22;12519;43.318;21.898;2022-08-04T03:15:28;23.4;76.0
21121;DHT22;12519;43.318;21.898;2022-08-04T03:22:55;23.2;76.0
21121;DHT22;12519;43.318;21.898;2022-08-04T03:30:07;23.2;76.0
21121;DHT22;12519;43.318;21.898;2022-08-04T03:37:02;23.8;75.0
21121;DHT22;12519;43.318;21.898;2022-08-04T03:44:15;24.4;74.0
21121;DHT22;12519;43.318;21.898;2022-08-04T03:50:53;24.4;74.0
21121;DHT22;12519;43.318;21.898;2022-08-04T03:57:58;24.4;74.0
21121;DHT22;12519;43.318;21.898;2022-08-04T04:04:02;24.3;74.0
21121;DHT22;12519;43.318;21.898;2022-08-04T04:10:29;24.3;74.0
21121;DHT22;12519;43.318;21.898;2022-08-04T04:16:48;24.6;73.0
21121;DHT22;12519;43.318;21.898;2022-08-04T04:22:28;24.9;73.0
21121;DHT22;12519;43.318;21.898;2022-08-04T04:28:20;24.9;73.0
21121;DHT22;12519;43.318;21.898;2022-08-04T04:33:57;25.0;73.0
21121;DHT22;12519;43.318;21.898;2022-08-04T04:39:38;25.0;73.0
21121;DHT22;12519;43.318;21.898;2022-08-04T04:45:17;25.0;72.0
21121;DHT22;12519;43.318;21.898;2022-08-04T04:50:52;25.0;72.0
21121;DHT22;12519;43.318;21.898;2022-08-04T04:56:44;25.1;72.0
21121;DHT22;12519;43.318;21.898;2022-08-04T05:04:01;25.2;72.0
21121;DHT22;12519;43.318;21.898;2022-08-04T05:11:05;25.2;72.0
21121;DHT22;12519;43.318;21.898;2022-08-04T05:17:25;25.2;72.0
21121;DHT22;12519;43.318;21.898;2022-08-04T05:22:36;25.1;72.0
21121;DHT22;12519;43.318;21.898;2022-08-04T05:28:02;25.1;72.0
21121;DHT22;12519;43.318;21.898;2022-08-04T05:33:08;25.4;71.0
21121;DHT22;12519;43.318;21.898;2022-08-04T05:38:05;25.4;71.0
21121;DHT22;12519;43.318;21.898;2022-08-04T05:42:58;25.6;70.0
21121;DHT22;12519;43.318;21.898;2022-08-04T05:47:38;25.6;70.0
21121;DHT22;12519;43.318;21.898;2022-08-04T05:52:19;25.5;70.0
21121;DHT22;12519;43.318;21.898;2022-08-04T05:57:06;25.5;70.0
21121;DHT22;12519;43.318;21.898;2022-08-04T06:01:49;25.4;70.0
21121;DHT22;12519;43.318;21.898;2022-08-04T06:06:35;25.4;70.0
21121;DHT22;12519;43.318;21.898;2022-08-04T06:11:20;25.4;70.0
21121;DHT22;12519;43.318;21.898;2022-08-04T06:16:10;25.1;70.0
21121;DHT22;12519;43.318;21.898;2022-08-04T06:21:03;25.1;70.0
21121;DHT22;12519;43.318;21.898;2022-08-04T06:25:59;24.8;70.0
21121;DHT22;12519;43.318;21.898;2022-08-04T06:30:45;24.8;70.0
21121;DHT22;12519;43.318;21.898;2022-08-04T06:35:28;24.6;71.0
21121;DHT22;12519;43.318;21.898;2022-08-04T06:40:14;24.6;71.0
21121;DHT22;12519;43.318;21.898;2022-08-04T06:45:06;24.3;71.0
21121;DHT22;12519;43.318;21.898;2022-08-04T06:49:55;24.3;71.0
21121;DHT22;12519;43.318;21.898;2022-08-04T06:54:35;24.5;71.0
21121;DHT22;12519;43.318;21.898;2022-08-04T06:59:17;24.5;71.0
21121;DHT22;12519;43.318;21.898;2022-08-04T07:03:56;24.7;71.0
21121;DHT22;12519;43.318;21.898;2022-08-04T07:08:36;24.7;71.0
21121;DHT22;12519;43.318;21.898;2022-08-04T07:13:17;24.9;71.0
21121;DHT22;12519;43.318;21.898;2022-08-04T07:17:56;24.9;71.0
21121;DHT22;12519;43.318;21.898;2022-08-04T07:22:35;25.1;71.0
21121;DHT22;12519;43.318;21.898;2022-08-04T07:27:18;25.1;71.0
21121;DHT22;12519;43.318;21.898;2022-08-04T07:31:59;25.1;71.0
21121;DHT22;12519;43.318;21.898;2022-08-04T07:36:42;26.0;69.0
21121;DHT22;12519;43.318;21.898;2022-08-04T07:41:24;26.0;69.0
21121;DHT22;12519;43.318;21.898;2022-08-04T07:46:03;26.8;67.0
21121;DHT22;12519;43.318;21.898;2022-08-04T07:50:44;26.8;67.0
21121;DHT22;12519;43.318;21.898;2022-08-04T07:55:24;27.4;66.0
21121;DHT22;12519;43.318;21.898;2022-08-04T08:00:11;27.4;66.0
21121;DHT22;12519;43.318;21.898;2022-08-04T08:04:52;28.1;64.0
21121;DHT22;12519;43.318;21.898;2022-08-04T08:09:33;28.1;64.0
21121;DHT22;12519;43.318;21.898;2022-08-04T08:14:12;28.5;63.0
21121;DHT22;12519;43.318;21.898;2022-08-04T08:18:52;28.5;63.0
21121;DHT22;12519;43.318;21.898;2022-08-04T08:23:35;28.9;62.0
21121;DHT22;12519;43.318;21.898;2022-08-04T08:28:15;28.9;62.0
21121;DHT22;12519;43.318;21.898;2022-08-04T08:32:53;29.0;62.0
21121;DHT22;12519;43.318;21.898;2022-08-04T08:37:46;29.0;62.0
21121;DHT22;12519;43.318;21.898;2022-08-04T08:43:31;29.1;61.0
21121;DHT22;12519;43.318;21.898;2022-08-04T08:50:08;29.1;61.0
21121;DHT22;12519;43.318;21.898;2022-08-04T08:55:55;29.2;61.0
21121;DHT22;12519;43.318;21.898;2022-08-04T09:01:50;29.2;61.0
21121;DHT22;12519;43.318;21.898;2022-08-04T09:08:21;29.3;60.0
21121;DHT22;12519;43.318;21.898;2022-08-04T09:13:52;29.6;60.0
21121;DHT22;12519;43.318;21.898;2022-08-04T09:19:01;29.6;60.0
21121;DHT22;12519;43.318;21.898;2022-08-04T09:24:15;30.0;60.0
21121;DHT22;12519;43.318;21.898;2022-08-04T09:29:46;30.0;60.0
21121;DHT22;12519;43.318;21.898;2022-08-04T09:35:12;30.2;59.0
21121;DHT22;12519;43.318;21.898;2022-08-04T09:40:22;30.2;59.0
21121;DHT22;12519;43.318;21.898;2022-08-04T09:45:28;30.4;59.0
21121;DHT22;12519;43.318;21.898;2022-08-04T09:50:37;30.4;59.0
21121;DHT22;12519;43.318;21.898;2022-08-04T09:55:54;30.4;59.0
21121;DHT22;12519;43.318;21.898;2022-08-04T10:01:01;30.4;59.0
21121;DHT22;12519;43.318;21.898;2022-08-04T10:06:41;30.3;59.0
21121;DHT22;12519;43.318;21.898;2022-08-04T10:12:42;30.3;59.0
21121;DHT22;12519;43.318;21.898;2022-08-04T10:18:44;30.3;59.0
21121;DHT22;12519;43.318;21.898;2022-08-04T10:24:54;30.3;59.0
21121;DHT22;12519;43.318;21.898;2022-08-04T10:30:22;30.3;59.0
21121;DHT22;12519;43.318;21.898;2022-08-04T10:35:16;30.4;59.0
21121;DHT22;12519;43.318;21.898;2022-08-04T10:40:14;30.4;59.0
21121;DHT22;12519;43.318;21.898;2022-08-04T10:45:24;30.6;59.0
21121;DHT22;12519;43.318;21.898;2022-08-04T10:50:28;30.6;59.0
21121;DHT22;12519;43.318;21.898;2022-08-04T10:55:33;30.6;59.0
21121;DHT22;12519;43.318;21.898;2022-08-04T11:00:28;30.6;59.0
21121;DHT22;12519;43.318;21.898;2022-08-04T11:05:45;30.5;59.0
21121;DHT22;12519;43.318;21.898;2022-08-04T11:10:50;30.5;59.0
21121;DHT22;12519;43.318;21.898;2022-08-04T11:15:54;30.8;58.0
21121;DHT22;12519;43.318;21.898;2022-08-04T11:20:58;30.8;58.0
21121;DHT22;12519;43.318;21.898;2022-08-04T11:26:08;31.0;58.0
21121;DHT22;12519;43.318;21.898;2022-08-04T11:31:22;31.0;58.0
21121;DHT22;12519;43.318;21.898;2022-08-04T11:36:29;31.2;58.0
21121;DHT22;12519;43.318;21.898;2022-08-04T11:41:52;31.2;58.0
21121;DHT22;12519;43.318;21.898;2022-08-04T11:47:26;31.4;57.0
21121;DHT22;12519;43.318;21.898;2022-08-04T11:52:19;31.4;57.0
21121;DHT22;12519;43.318;21.898;2022-08-04T11:57:01;31.2;56.0
21121;DHT22;12519;43.318;21.898;2022-08-04T12:02:35;31.2;56.0
21121;DHT22;12519;43.318;21.898;2022-08-04T12:09:08;31.1;56.0
21121;DHT22;12519;43.318;21.898;2022-08-04T12:14:46;31.2;56.0
21121;DHT22;12519;43.318;21.898;2022-08-04T12:19:57;31.2;56.0
21121;DHT22;12519;43.318;21.898;2022-08-04T12:24:56;31.2;55.0
21121;DHT22;12519;43.318;21.898;2022-08-04T12:29:46;31.2;55.0
21121;DHT22;12519;43.318;21.898;2022-08-04T12:34:42;31.0;56.0
21121;DHT22;12519;43.318;21.898;2022-08-04T12:39:50;31.0;56.0
21121;DHT22;12519;43.318;21.898;2022-08-04T12:44:52;30.8;56.0
21121;DHT22;12519;43.318;21.898;2022-08-04T12:49:43;30.8;56.0
21121;DHT22;12519;43.318;21.898;2022-08-04T12:54:36;30.8;55.0
21121;DHT22;12519;43.318;21.898;2022-08-04T12:59:27;30.8;55.0
21121;DHT22;12519;43.318;21.898;2022-08-04T13:04:19;30.8;55.0
21121;DHT22;12519;43.318;21.898;2022-08-04T13:09:15;30.8;55.0
21121;DHT22;12519;43.318;21.898;2022-08-04T13:14:01;30.8;54.0
21121;DHT22;12519;43.318;21.898;2022-08-04T13:18:49;30.8;54.0
21121;DHT22;12519;43.318;21.898;2022-08-04T13:23:27;30.8;54.0
21121;DHT22;12519;43.318;21.898;2022-08-04T13:28:19;30.8;54.0
21121;DHT22;12519;43.318;21.898;2022-08-04T13:33:06;31.0;54.0
21121;DHT22;12519;43.318;21.898;2022-08-04T13:37:46;31.0;54.0
21121;DHT22;12519;43.318;21.898;2022-08-04T13:42:27;31.0;54.0
21121;DHT22;12519;43.318;21.898;2022-08-04T13:47:27;31.2;53.0
21121;DHT22;12519;43.318;21.898;2022-08-04T13:52:10;31.2;53.0
21121;DHT22;12519;43.318;21.898;2022-08-04T13:56:59;31.2;53.0
21121;DHT22;12519;43.318;21.898;2022-08-04T14:02:06;31.2;53.0
21121;DHT22;12519;43.318;21.898;2022-08-04T14:07:17;31.3;53.0
21121;DHT22;12519;43.318;21.898;2022-08-04T14:12:13;31.3;53.0
21121;DHT22;12519;43.318;21.898;2022-08-04T14:17:07;31.4;53.0
21121;DHT22;12519;43.318;21.898;2022-08-04T14:21:52;31.4;53.0
21121;DHT22;12519;43.318;21.898;2022-08-04T14:26:34;31.4;52.0
21121;DHT22;12519;43.318;21.898;2022-08-04T14:31:18;31.4;52.0
21121;DHT22;12519;43.318;21.898;2022-08-04T14:35:59;31.4;52.0
21121;DHT22;12519;43.318;21.898;2022-08-04T14:40:42;31.4;52.0
21121;DHT22;12519;43.318;21.898;2022-08-04T14:45:31;31.5;52.0
21121;DHT22;12519;43.318;21.898;2022-08-04T14:50:15;31.5;52.0
21121;DHT22;12519;43.318;21.898;2022-08-04T14:54:52;31.3;52.0
21121;DHT22;12519;43.318;21.898;2022-08-04T14:59:45;31.3;52.0
21121;DHT22;12519;43.318;21.898;2022-08-04T15:04:26;31.1;53.0
21121;DHT22;12519;43.318;21.898;2022-08-04T15:09:09;31.1;53.0
21121;DHT22;12519;43.318;21.898;2022-08-04T15:13:46;31.1;53.0
21121;DHT22;12519;43.318;21.898;2022-08-04T15:18:26;31.1;53.0
21121;DHT22;12519;43.318;21.898;2022-08-04T15:23:04;31.1;52.0
21121;DHT22;12519;43.318;21.898;2022-08-04T15:27:51;31.1;52.0
21121;DHT22;12519;43.318;21.898;2022-08-04T15:32:45;31.1;52.0
21121;DHT22;12519;43.318;21.898;2022-08-04T15:38:04;31.0;52.0
21121;DHT22;12519;43.318;21.898;2022-08-04T15:44:20;31.0;51.0
21121;DHT22;12519;43.318;21.898;2022-08-04T15:50:11;31.0;51.0
21121;DHT22;12519;43.318;21.898;2022-08-04T15:55:35;31.0;51.0
21121;DHT22;12519;43.318;21.898;2022-08-04T16:00:18;31.0;51.0
21121;DHT22;12519;43.318;21.898;2022-08-04T16:05:34;31.0;51.0
21121;DHT22;12519;43.318;21.898;2022-08-04T16:10:40;31.0;51.0
21121;DHT22;12519;43.318;21.898;2022-08-04T16:15:43;31.0;51.0
21121;DHT22;12519;43.318;21.898;2022-08-04T16:20:31;31.0;51.0
21121;DHT22;12519;43.318;21.898;2022-08-04T16:25:12;31.0;52.0
21121;DHT22;12519;43.318;21.898;2022-08-04T16:30:07;31.0;52.0
21121;DHT22;12519;43.318;21.898;2022-08-04T16:35:00;30.9;52.0
21121;DHT22;12519;43.318;21.898;2022-08-04T16:39:41;30.9;52.0
21121;DHT22;12519;43.318;21.898;2022-08-04T16:44:36;30.8;52.0
21121;DHT22;12519;43.318;21.898;2022-08-04T16:49:13;30.8;52.0
21121;DHT22;12519;43.318;21.898;2022-08-04T16:53:51;30.8;52.0
21121;DHT22;12519;43.318;21.898;2022-08-04T16:58:34;30.8;52.0
21121;DHT22;12519;43.318;21.898;2022-08-04T17:03:12;30.7;53.0
21121;DHT22;12519;43.318;21.898;2022-08-04T17:07:53;30.7;53.0
21121;DHT22;12519;43.318;21.898;2022-08-04T17:12:34;30.7;53.0
21121;DHT22;12519;43.318;21.898;2022-08-04T17:17:10;30.6;53.0
21121;DHT22;12519;43.318;21.898;2022-08-04T17:21:50;30.6;53.0
21121;DHT22;12519;43.318;21.898;2022-08-04T17:26:40;30.5;54.0
21121;DHT22;12519;43.318;21.898;2022-08-04T17:31:28;30.5;54.0
21121;DHT22;12519;43.318;21.898;2022-08-04T17:36:17;30.4;54.0
21121;DHT22;12519;43.318;21.898;2022-08-04T17:41:08;30.4;54.0
21121;DHT22;12519;43.318;21.898;2022-08-04T17:46:21;30.3;54.0
21121;DHT22;12519;43.318;21.898;2022-08-04T17:51:14;30.3;54.0
21121;DHT22;12519;43.318;21.898;2022-08-04T17:55:52;30.2;54.0
21121;DHT22;12519;43.318;21.898;2022-08-04T18:00:34;30.2;54.0
21121;DHT22;12519;43.318;21.898;2022-08-04T18:05:27;30.2;54.0
21121;DHT22;12519;43.318;21.898;2022-08-04T18:10:07;30.2;54.0
21121;DHT22;12519;43.318;21.898;2022-08-04T18:14:50;30.0;55.0
21121;DHT22;12519;43.318;21.898;2022-08-04T18:19:38;30.0;55.0
21121;DHT22;12519;43.318;21.898;2022-08-04T18:24:33;29.9;55.0
21121;DHT22;12519;43.318;21.898;2022-08-04T18:29:11;29.9;55.0
21121;DHT22;12519;43.318;21.898;2022-08-04T18:33:48;29.7;56.0
21121;DHT22;12519;43.318;21.898;2022-08-04T18:38:24;29.7;56.0
21121;DHT22;12519;43.318;21.898;2022-08-04T18:43:01;29.7;56.0
21121;DHT22;12519;43.318;21.898;2022-08-04T18:47:39;29.5;57.0
21121;DHT22;12519;43.318;21.898;2022-08-04T18:52:16;29.5;57.0
21121;DHT22;12519;43.318;21.898;2022-08-04T18:56:54;29.4;57.0
21121;DHT22;12519;43.318;21.898;2022-08-04T19:01:32;29.4;57.0
21121;DHT22;12519;43.318;21.898;2022-08-04T19:06:10;29.2;58.0
21121;DHT22;12519;43.318;21.898;2022-08-04T19:10:47;29.2;58.0
21121;DHT22;12519;43.318;21.898;2022-08-04T19:15:23;29.1;59.0
21121;DHT22;12519;43.318;21.898;2022-08-04T19:20:00;29.1;59.0
21121;DHT22;12519;43.318;21.898;2022-08-04T19:24:37;29.0;60.0
21121;DHT22;12519;43.318;21.898;2022-08-04T19:29:14;29.0;60.0
21121;DHT22;12519;43.318;21.898;2022-08-04T19:33:51;28.8;60.0
21121;DHT22;12519;43.318;21.898;2022-08-04T19:38:27;28.8;60.0
21121;DHT22;12519;43.318;21.898;2022-08-04T19:43:06;28.8;60.0
21121;DHT22;12519;43.318;21.898;2022-08-04T19:47:44;28.7;60.0
21121;DHT22;12519;43.318;21.898;2022-08-04T19:52:20;28.7;60.0
21121;DHT22;12519;43.318;21.898;2022-08-04T19:56:57;28.6;61.0
21121;DHT22;12519;43.318;21.898;2022-08-04T20:01:33;28.6;61.0
21121;DHT22;12519;43.318;21.898;2022-08-04T20:06:09;28.5;62.0
21121;DHT22;12519;43.318;21.898;2022-08-04T20:10:45;28.5;62.0
21121;DHT22;12519;43.318;21.898;2022-08-04T20:15:23;28.5;62.0
21121;DHT22;12519;43.318;21.898;2022-08-04T20:20:00;28.5;62.0
21121;DHT22;12519;43.318;21.898;2022-08-04T20:24:38;28.5;63.0
21121;DHT22;12519;43.318;21.898;2022-08-04T20:29:15;28.5;63.0
21121;DHT22;12519;43.318;21.898;2022-08-04T20:33:51;28.4;63.0
21121;DHT22;12519;43.318;21.898;2022-08-04T20:38:28;28.4;63.0
21121;DHT22;12519;43.318;21.898;2022-08-04T20:43:05;28.4;63.0
21121;DHT22;12519;43.318;21.898;2022-08-04T20:47:44;28.3;63.0
21121;DHT22;12519;43.318;21.898;2022-08-04T20:52:21;28.3;63.0
21121;DHT22;12519;43.318;21.898;2022-08-04T20:56:58;28.2;63.0
21121;DHT22;12519;43.318;21.898;2022-08-04T21:01:35;28.2;63.0
21121;DHT22;12519;43.318;21.898;2022-08-04T21:06:12;28.1;64.0
21121;DHT22;12519;43.318;21.898;2022-08-04T21:10:49;28.1;64.0
21121;DHT22;12519;43.318;21.898;2022-08-04T21:15:26;28.1;63.0
21121;DHT22;12519;43.318;21.898;2022-08-04T21:20:05;28.1;63.0
21121;DHT22;12519;43.318;21.898;2022-08-04T21:24:45;28.1;63.0
21121;DHT22;12519;43.318;21.898;2022-08-04T21:29:24;28.1;63.0
21121;DHT22;12519;43.318;21.898;2022-08-04T21:34:01;28.0;63.0
21121;DHT22;12519;43.318;21.898;2022-08-04T21:38:38;28.0;63.0
21121;DHT22;12519;43.318;21.898;2022-08-04T21:43:17;28.0;63.0
21121;DHT22;12519;43.318;21.898;2022-08-04T21:47:54;27.9;63.0
21121;DHT22;12519;43.318;21.898;2022-08-04T21:52:30;27.9;63.0
21121;DHT22;12519;43.318;21.898;2022-08-04T21:57:07;27.8;64.0
21121;DHT22;12519;43.318;21.898;2022-08-04T22:01:44;27.8;64.0
21121;DHT22;12519;43.318;21.898;2022-08-04T22:06:22;27.6;64.0
21121;DHT22;12519;43.318;21.898;2022-08-04T22:11:00;27.6;64.0
21121;DHT22;12519;43.318;21.898;2022-08-04T22:15:38;27.6;64.0
21121;DHT22;12519;43.318;21.898;2022-08-04T22:20:15;27.6;64.0
21121;DHT22;12519;43.318;21.898;2022-08-04T22:24:54;27.6;65.0
21121;DHT22;12519;43.318;21.898;2022-08-04T22:29:34;27.6;65.0
21121;DHT22;12519;43.318;21.898;2022-08-04T22:34:11;27.6;65.0
21121;DHT22;12519;43.318;21.898;2022-08-04T22:38:48;27.6;65.0
21121;DHT22;12519;43.318;21.898;2022-08-04T22:43:28;27.6;65.0
21121;DHT22;12519;43.318;21.898;2022-08-04T22:48:06;27.5;65.0
21121;DHT22;12519;43.318;21.898;2022-08-04T22:52:42;27.5;65.0
21121;DHT22;12519;43.318;21.898;2022-08-04T22:57:19;27.4;65.0
21121;DHT22;12519;43.318;21.898;2022-08-04T23:01:56;27.4;65.0
21121;DHT22;12519;43.318;21.898;2022-08-04T23:06:33;27.2;65.0
21121;DHT22;12519;43.318;21.898;2022-08-04T23:11:10;27.2;65.0
21121;DHT22;12519;43.318;21.898;2022-08-04T23:15:47;27.0;66.0
21121;DHT22;12519;43.318;21.898;2022-08-04T23:20:23;27.0;66.0
21121;DHT22;12519;43.318;21.898;2022-08-04T23:25:00;26.9;66.0
21121;DHT22;12519;43.318;21.898;2022-08-04T23:29:37;26.9;66.0
21121;DHT22;12519;43.318;21.898;2022-08-04T23:34:13;26.8;66.0
21121;DHT22;12519;43.318;21.898;2022-08-04T23:38:50;26.8;66.0
21121;DHT22;12519;43.318;21.898;2022-08-04T23:43:27;26.8;66.0
21121;DHT22;12519;43.318;21.898;2022-08-04T23:48:05;26.8;66.0
21121;DHT22;12519;43.318;21.898;2022-08-04T23:52:42;26.8;66.0
21121;DHT22;12519;43.318;21.898;2022-08-04T23:57:18;26.6;66.0
